createdAt,value
2022-11-08T00:02:58.484Z,98893.89
2022-11-08T00:08:22.236Z,98895.94
2022-11-08T00:13:46.699Z,98901.38
2022-11-08T00:18:48.598Z,98902.14
2022-11-08T00:23:50.449Z,98905.05
2022-11-08T00:28:52.304Z,98903.33
2022-11-08T00:33:54.106Z,98904.77
2022-11-08T00:38:56.040Z,98902.31
2022-11-08T00:43:57.842Z,98903.83
2022-11-08T00:48:59.629Z,98901.13
2022-11-08T00:54:01.490Z,98898.55
2022-11-08T00:59:03.409Z,98899.22
2022-11-08T01:04:05.841Z,98896.30
2022-11-08T01:09:08.330Z,98897.73
2022-11-08T01:14:10.150Z,98892.55
2022-11-08T01:19:12.327Z,98890.16
2022-11-08T01:24:14.158Z,98886.73
2022-11-08T01:29:15.933Z,98888.50
2022-11-08T01:34:17.700Z,98882.17
2022-11-08T01:39:19.471Z,98879.14
2022-11-08T01:44:22.308Z,98875.01
2022-11-08T01:49:27.773Z,98873.98
2022-11-08T01:54:40.091Z,98873.00
2022-11-08T01:59:45.282Z,98873.23
2022-11-08T02:04:47.743Z,98872.80
2022-11-08T02:09:49.530Z,98871.10
2022-11-08T02:14:51.436Z,98872.19
2022-11-08T02:19:53.381Z,98868.98
2022-11-08T02:24:58.466Z,98860.14
2022-11-08T02:30:00.287Z,98865.09
2022-11-08T02:35:02.450Z,98857.33
2022-11-08T02:40:05.412Z,98857.16
2022-11-08T02:45:07.932Z,98859.59
2022-11-08T02:50:10.197Z,98861.09
2022-11-08T02:55:11.984Z,98858.81
2022-11-08T03:00:14.352Z,98861.00
2022-11-08T03:05:16.184Z,98861.66
2022-11-08T03:10:18.766Z,98858.98
2022-11-08T03:15:20.692Z,98861.02
2022-11-08T03:20:22.854Z,98858.56
2022-11-08T03:25:24.759Z,98858.08
2022-11-08T03:30:26.531Z,98860.34
2022-11-08T03:35:28.463Z,98863.96
2022-11-08T03:40:30.285Z,98861.54
2022-11-08T03:45:32.249Z,98859.63
2022-11-08T03:50:34.219Z,98858.25
2022-11-08T03:55:36.069Z,98855.77
2022-11-08T04:00:37.935Z,98854.11
2022-11-08T04:05:39.792Z,98849.15
2022-11-08T04:10:41.615Z,98853.12
2022-11-08T04:15:43.420Z,98850.24
2022-11-08T04:21:06.626Z,98852.75
2022-11-08T04:26:11.761Z,98847.44
2022-11-08T04:31:16.174Z,98841.64
2022-11-08T04:36:18.051Z,98842.71
2022-11-08T04:41:22.807Z,98844.97
2022-11-08T04:46:27.436Z,98854.63
2022-11-08T04:51:31.830Z,98855.88
2022-11-08T04:56:33.640Z,98859.09
2022-11-08T05:01:36.403Z,98862.60
2022-11-08T05:06:38.379Z,98861.45
2022-11-08T05:11:40.192Z,98855.08
2022-11-08T05:16:42.034Z,98848.90
2022-11-08T05:22:02.705Z,98853.66
2022-11-08T05:27:04.500Z,98856.98
2022-11-08T05:32:06.306Z,98858.83
2022-11-08T05:37:08.060Z,98858.71
2022-11-08T05:42:09.935Z,98861.48
2022-11-08T05:47:11.755Z,98863.39
2022-11-08T05:52:13.559Z,98866.59
2022-11-08T05:57:17.739Z,98872.08
2022-11-08T06:02:23.173Z,98880.33
2022-11-08T06:07:25.218Z,98881.85
2022-11-08T06:12:27.067Z,98887.35
2022-11-08T06:17:30.260Z,98886.06
2022-11-08T06:22:33.043Z,98881.68
2022-11-08T06:27:36.342Z,98890.63
2022-11-08T06:32:38.165Z,98898.30
2022-11-08T06:37:39.946Z,98898.72
2022-11-08T06:42:41.777Z,98899.73
2022-11-08T06:47:43.552Z,98890.83
2022-11-08T06:52:45.442Z,98891.77
2022-11-08T06:57:47.268Z,98890.69
2022-11-08T07:02:56.677Z,98888.73
2022-11-08T07:07:59.482Z,98889.16
2022-11-08T07:13:03.708Z,98895.88
2022-11-08T07:18:08.216Z,98898.19
2022-11-08T07:23:11.254Z,98897.45
2022-11-08T07:28:17.333Z,98898.02
2022-11-08T07:33:19.389Z,98890.88
2022-11-08T07:38:22.344Z,98886.33
2022-11-08T07:43:24.896Z,98893.98
2022-11-08T07:48:29.568Z,98897.35
2022-11-08T07:53:31.534Z,98894.31
2022-11-08T07:58:34.619Z,98896.65
2022-11-08T08:03:36.588Z,98898.35
2022-11-08T08:08:39.259Z,98902.38
2022-11-08T08:13:41.598Z,98900.17
2022-11-08T08:18:43.380Z,98899.98
2022-11-08T08:23:45.218Z,98903.04
2022-11-08T08:28:47.127Z,98900.19
2022-11-08T08:33:48.971Z,98901.02
2022-11-08T08:38:50.775Z,98904.52
2022-11-08T08:43:52.579Z,98905.73
2022-11-08T08:48:54.731Z,98902.38
2022-11-08T08:53:58.441Z,98904.00
2022-11-08T09:04:22.080Z,98906.36
2022-11-08T09:09:23.938Z,98913.23
2022-11-08T09:14:25.766Z,98917.20
2022-11-08T09:19:27.591Z,98916.58
2022-11-08T09:24:29.550Z,98914.26
2022-11-08T09:29:32.097Z,98908.90
2022-11-08T09:34:33.920Z,98905.11
2022-11-08T09:39:36.032Z,98903.52
2022-11-08T09:44:45.807Z,98900.95
2022-11-08T09:50:00.862Z,98896.92
2022-11-08T09:55:45.327Z,98890.98
2022-11-08T10:00:51.035Z,98881.67
2022-11-08T10:05:58.991Z,98874.72
2022-11-08T10:11:29.527Z,98869.42
2022-11-08T10:16:43.581Z,98866.44
2022-11-08T10:22:08.705Z,98866.66
2022-11-08T10:27:16.484Z,98858.95
2022-11-08T10:32:21.835Z,98856.95
2022-11-08T10:37:25.577Z,98849.41
2022-11-08T10:42:45.459Z,98849.19
2022-11-08T10:47:47.479Z,98846.48
2022-11-08T10:53:03.506Z,98844.85
2022-11-08T10:58:41.669Z,98837.33
2022-11-08T11:03:45.872Z,98840.94
2022-11-08T11:08:49.851Z,98835.27
2022-11-08T11:14:08.003Z,98825.14
2022-11-08T11:19:15.123Z,98821.80
2022-11-08T11:24:21.089Z,98820.75
2022-11-08T11:29:30.789Z,98818.28
2022-11-08T11:34:50.928Z,98819.94
2022-11-08T11:40:04.966Z,98816.62
2022-11-08T11:45:29.180Z,98812.60
2022-11-08T11:50:37.858Z,98809.08
2022-11-08T11:55:51.939Z,98807.65
2022-11-08T12:01:15.839Z,98807.64
2022-11-08T12:06:27.254Z,98800.00
2022-11-08T12:11:40.911Z,98793.80
2022-11-08T12:16:58.157Z,98788.96
2022-11-08T12:22:12.282Z,98778.46
2022-11-08T12:27:23.236Z,98774.89
2022-11-08T12:32:43.446Z,98771.10
2022-11-08T12:38:24.380Z,98769.89
2022-11-08T12:43:32.202Z,98767.03
2022-11-08T12:49:01.552Z,98765.64
2022-11-08T12:54:29.551Z,98758.59
2022-11-08T12:59:45.738Z,98752.23
2022-11-08T13:05:03.089Z,98754.33
2022-11-08T13:10:20.383Z,98751.22
2022-11-08T13:15:25.416Z,98750.05
2022-11-08T13:20:47.991Z,98756.09
2022-11-08T13:25:52.029Z,98755.83
2022-11-08T13:31:02.310Z,98753.81
2022-11-08T13:36:09.983Z,98747.19
2022-11-08T13:41:18.132Z,98745.70
2022-11-08T13:46:19.952Z,98746.21
2022-11-08T13:51:23.494Z,98741.36
2022-11-08T13:56:44.343Z,98731.67
2022-11-08T14:01:46.175Z,98728.86
2022-11-08T14:07:06.853Z,98729.11
2022-11-08T14:12:08.743Z,98726.92
2022-11-08T14:17:34.253Z,98722.20
2022-11-08T14:22:36.133Z,98725.58
2022-11-08T14:27:40.233Z,98724.70
2022-11-08T14:32:42.280Z,98729.64
2022-11-08T14:37:44.281Z,98726.59
2022-11-08T14:42:46.315Z,98724.69
2022-11-08T14:48:03.432Z,98724.73
2022-11-08T14:53:17.595Z,98721.67
2022-11-08T14:58:20.013Z,98723.58
2022-11-08T15:03:29.004Z,98719.02
2022-11-08T15:08:52.766Z,98718.59
2022-11-08T15:13:59.732Z,98713.86
2022-11-08T15:19:37.615Z,98714.64
2022-11-08T15:24:40.204Z,98719.75
2022-11-08T15:29:52.648Z,98719.14
2022-11-08T15:34:56.299Z,98709.98
2022-11-08T15:40:16.234Z,98706.59
2022-11-08T15:45:17.989Z,98700.44
2022-11-08T15:50:22.830Z,98698.83
2022-11-08T15:55:50.517Z,98693.83
2022-11-08T16:00:52.519Z,98690.41
2022-11-08T16:05:54.352Z,98693.14
2022-11-08T16:10:59.901Z,98690.04
2022-11-08T16:16:05.119Z,98690.23
2022-11-08T16:21:09.336Z,98702.77
2022-11-08T16:26:17.273Z,98704.42
2022-11-08T16:31:19.080Z,98705.30
2022-11-08T16:36:24.086Z,98706.02
2022-11-08T16:41:26.147Z,98707.18
2022-11-08T16:46:28.884Z,98709.60
2022-11-08T16:51:31.028Z,98711.09
2022-11-08T16:56:32.838Z,98716.95
2022-11-08T17:01:34.966Z,98717.89
2022-11-08T17:06:36.914Z,98721.05
2022-11-08T17:11:39.781Z,98719.78
2022-11-08T17:16:42.068Z,98723.02
2022-11-08T17:21:45.479Z,98725.23
2022-11-08T17:26:47.914Z,98728.90
2022-11-08T17:31:50.153Z,98727.05
2022-11-08T17:36:53.065Z,98724.73
2022-11-08T17:41:54.962Z,98725.63
2022-11-08T17:46:56.792Z,98730.59
2022-11-08T17:51:58.797Z,98727.38
2022-11-08T17:57:00.973Z,98729.14
2022-11-08T18:02:03.516Z,98725.66
2022-11-08T18:07:05.850Z,98727.86
2022-11-08T18:12:07.862Z,98729.29
2022-11-08T18:17:09.972Z,98734.20
2022-11-08T18:22:11.829Z,98729.67
2022-11-08T18:27:13.761Z,98728.73
2022-11-08T18:32:15.710Z,98727.23
2022-11-08T18:37:17.613Z,98728.84
2022-11-08T18:42:19.442Z,98725.04
2022-11-08T18:47:21.304Z,98725.96
2022-11-08T18:52:23.116Z,98724.87
2022-11-08T18:57:24.999Z,98728.01
2022-11-08T19:02:26.988Z,98724.22
2022-11-08T19:07:29.947Z,98726.20
2022-11-08T19:12:31.780Z,98734.07
2022-11-08T19:17:35.468Z,98734.96
2022-11-08T19:22:37.316Z,98736.19
2022-11-08T19:27:39.200Z,98731.69
2022-11-08T19:32:41.061Z,98736.23
2022-11-08T19:37:43.013Z,98739.20
2022-11-08T19:42:44.861Z,98736.02
2022-11-08T19:47:48.786Z,98737.55
2022-11-08T19:52:50.644Z,98742.91
2022-11-08T19:57:52.525Z,98745.02
2022-11-08T20:02:54.421Z,98744.86
2022-11-08T20:07:56.307Z,98751.80
2022-11-08T20:12:58.292Z,98748.05
2022-11-08T20:18:00.171Z,98750.85
2022-11-08T20:23:01.967Z,98751.92
2022-11-08T20:28:04.396Z,98747.89
2022-11-08T20:33:06.310Z,98746.78
2022-11-08T20:38:08.254Z,98736.00
2022-11-08T20:43:10.113Z,98735.11
2022-11-08T20:48:14.211Z,98730.36
2022-11-08T20:53:16.214Z,98726.80
2022-11-08T20:58:18.392Z,98728.95
2022-11-08T21:03:21.869Z,98734.45
2022-11-08T21:13:47.299Z,98734.71
2022-11-08T21:18:49.144Z,98733.77
2022-11-08T21:23:51.860Z,98735.72
2022-11-08T21:28:54.265Z,98733.66
2022-11-08T21:33:56.183Z,98732.77
2022-11-08T21:38:58.086Z,98727.62
2022-11-08T21:44:00.058Z,98724.45
2022-11-08T21:49:02.430Z,98728.71
2022-11-08T21:54:05.249Z,98728.39
2022-11-08T21:59:07.063Z,98733.27
2022-11-08T22:04:08.863Z,98735.31
2022-11-08T22:09:11.281Z,98736.56
2022-11-08T22:14:13.236Z,98740.10
2022-11-08T22:19:15.326Z,98740.80
2022-11-08T22:24:20.642Z,98744.92
2022-11-08T22:29:22.606Z,98744.17
2022-11-08T22:34:25.008Z,98746.06
2022-11-08T22:39:26.834Z,98740.52
2022-11-08T22:44:28.774Z,98747.49
2022-11-08T22:49:30.763Z,98743.80
2022-11-08T22:54:32.683Z,98747.76
2022-11-08T22:59:34.543Z,98746.19
2022-11-08T23:04:36.426Z,98746.27
2022-11-08T23:09:38.295Z,98741.77
2022-11-08T23:14:59.047Z,98736.18
2022-11-08T23:20:19.617Z,98732.93
2022-11-08T23:25:21.610Z,98736.98
2022-11-08T23:30:42.076Z,98739.88
2022-11-08T23:36:03.948Z,98742.29
2022-11-08T23:41:24.316Z,98734.38
2022-11-08T23:46:26.164Z,98733.05
2022-11-08T23:51:28.098Z,98734.02
2022-11-08T23:56:30.000Z,98733.11
